Terminal Aerodrome Forecast
Issued by NWS Twin Cities, MN

Home | Current Version | Previous Version | Graphics & Text | Print | Product List | Glossary On
Versions: 1 2 3 4 5 6 7 8 9 10 11 12 13
979
FTUS43 KMPX 120804 AAA
TAFEAU
TAF AMD
KEAU 120804Z 1208/1306 28009KT P6SM SCT025 OVC040
     FM121100 31011KT P6SM SCT030
     FM121500 32015G22KT P6SM SCT040
     FM122300 31009KT P6SM SKC=

USA.gov is the U.S. government's official web portal to all federal, state and local government web resources and services.